Time;durP1;ratioP1;P1;durP2;ratioP2;P2;SDS_P1;SDS_P2;PMS_P1;PMS_P2;Temp;Humidity;BMP_temperature;BMP_pressure;BME280_temperature;BME280_humidity;BME280_pressure;Samples;Min_cycle;Max_cycle;Signal;HPM_P1;HPM_P2
2022/12/06 00:01:10;;;;;;;0.00;0.00;;;;;;;9.18;57.68;95732.53;5066586;28;20859;-62
2022/12/06 00:03:38;;;;;;;0.70;0.70;;;;;;;9.24;57.86;95733.47;5058388;28;20442;-63
2022/12/06 00:06:08;;;;;;;0.00;0.00;;;;;;;9.20;56.98;95733.13;5054308;28;20439;-63
2022/12/06 00:08:36;;;;;;;0.98;0.77;;;;;;;8.82;57.57;95727.47;5069044;28;20196;-65
2022/12/06 00:11:15;;;;;;;0.15;0.15;;;;;;;9.06;57.32;95718.66;5068638;28;20273;-65
2022/12/06 00:13:42;;;;;;;0.00;0.00;;;;;;;9.14;57.10;95720.16;5071981;28;20215;-63
2022/12/06 00:16:12;;;;;;;0.60;0.60;;;;;;;9.12;56.82;95712.53;5071820;28;20218;-65
2022/12/06 00:18:41;;;;;;;7.20;1.80;;;;;;;9.23;57.14;95733.69;5065103;28;20435;-65
2022/12/06 00:21:12;;;;;;;0.30;0.30;;;;;;;9.34;56.27;95723.25;5065938;28;20454;-65
2022/12/06 00:23:45;;;;;;;5.20;2.30;;;;;;;9.12;56.69;95717.75;5052478;28;20505;-64
2022/12/06 00:26:13;;;;;;;1.63;1.53;;;;;;;9.05;57.05;95722.28;5051809;28;20204;-64
2022/12/06 00:28:40;;;;;;;0.20;0.15;;;;;;;9.12;56.88;95722.97;5071608;28;20517;-64
2022/12/06 00:31:13;;;;;;;0.10;0.10;;;;;;;9.25;56.13;95716.75;5072429;28;20203;-64
2022/12/06 00:33:40;;;;;;;0.00;0.00;;;;;;;9.30;56.09;95729.13;5057651;28;20438;-64
2022/12/06 00:36:12;;;;;;;0.47;0.47;;;;;;;9.49;55.18;95728.03;5071988;28;20469;-64
2022/12/06 00:38:38;;;;;;;1.23;0.60;;;;;;;9.20;55.16;95727.88;5071667;28;20541;-64
2022/12/06 00:41:23;;;;;;;0.00;0.00;;;;;;;9.28;55.50;95729.38;5062547;28;20247;-65
2022/12/06 00:43:51;;;;;;;0.57;0.57;;;;;;;9.32;55.25;95727.91;5051220;28;20714;-63
2022/12/06 00:46:22;;;;;;;0.23;0.23;;;;;;;9.33;55.47;95718.22;5062241;28;20454;-65
2022/12/06 00:48:50;;;;;;;1.35;0.47;;;;;;;9.17;55.62;95717.09;5054030;28;20490;-64
2022/12/06 00:51:18;;;;;;;0.20;0.20;;;;;;;9.23;56.38;95724.03;5055263;28;20595;-63
2022/12/06 00:53:45;;;;;;;0.17;0.13;;;;;;;9.46;55.84;95723.22;5063442;28;20315;-64
2022/12/06 00:56:12;;;;;;;0.03;0.03;;;;;;;9.33;55.70;95715.59;5067167;28;20470;-65
2022/12/06 00:58:39;;;;;;;2.60;1.47;;;;;;;9.36;55.75;95712.56;5061624;28;20541;-65
2022/12/06 01:01:10;;;;;;;1.27;1.17;;;;;;;9.39;56.37;95719.94;5068508;28;21000;-65
2022/12/06 01:03:38;;;;;;;1.90;1.53;;;;;;;9.34;56.29;95709.38;5061066;28;20449;-63
2022/12/06 01:06:10;;;;;;;0.17;0.17;;;;;;;9.28;55.80;95698.00;5071171;28;20442;-64
2022/12/06 01:08:38;;;;;;;0.00;0.00;;;;;;;9.35;55.95;95706.50;5062553;28;20447;-65
2022/12/06 01:11:05;;;;;;;0.50;0.50;;;;;;;9.47;55.71;95696.06;5066100;28;20481;-66
2022/12/06 01:13:33;;;;;;;0.80;0.60;;;;;;;9.51;55.90;95699.78;5070972;28;20287;-66
2022/12/06 01:16:29;;;;;;;0.20;0.20;;;;;;;9.54;55.60;95709.81;5071410;28;20571;-65
2022/12/06 01:18:59;;;;;;;0.10;0.10;;;;;;;8.87;56.96;95701.47;5058619;28;20454;-66
2022/12/06 01:21:27;;;;;;;0.30;0.30;;;;;;;8.95;56.35;95695.94;5071410;28;20537;-67
2022/12/06 01:23:55;;;;;;;0.10;0.10;;;;;;;9.08;56.46;95700.94;5070925;28;20442;-63
2022/12/06 01:26:28;;;;;;;0.00;0.00;;;;;;;9.04;56.36;95691.94;5056860;28;20439;-63
2022/12/06 01:28:57;;;;;;;0.20;0.20;;;;;;;9.23;56.20;95697.06;5062870;28;20211;-64
2022/12/06 01:31:24;;;;;;;0.20;0.20;;;;;;;9.07;56.45;95681.03;5065364;28;20496;-63
2022/12/06 01:33:51;;;;;;;0.22;0.22;;;;;;;9.01;57.11;95684.53;5070409;28;20450;-64
2022/12/06 01:36:22;;;;;;;0.63;0.60;;;;;;;8.92;56.81;95685.91;5058618;28;20244;-64
2022/12/06 01:38:54;;;;;;;0.27;0.27;;;;;;;9.04;57.27;95686.72;5064705;28;20207;-64
2022/12/06 01:41:23;;;;;;;0.13;0.13;;;;;;;9.08;56.89;95684.47;5062641;28;20446;-65
2022/12/06 01:43:51;;;;;;;0.13;0.13;;;;;;;8.98;56.63;95674.56;5056567;28;20438;-64
2022/12/06 01:46:31;;;;;;;1.17;1.07;;;;;;;9.00;56.38;95685.59;5070896;28;20533;-64
2022/12/06 01:49:19;;;;;;;0.33;0.33;;;;;;;9.09;56.62;95680.81;5070133;28;20470;-64
2022/12/06 01:52:00;;;;;;;0.10;0.10;;;;;;;8.95;57.04;95675.00;5060162;28;20876;-65
2022/12/06 01:54:28;;;;;;;0.63;0.57;;;;;;;8.79;57.14;95677.50;5054373;28;20442;-65
2022/12/06 01:56:56;;;;;;;0.60;0.60;;;;;;;8.89;57.13;95681.13;5070604;28;20231;-65
2022/12/06 01:59:24;;;;;;;0.20;0.20;;;;;;;8.93;57.55;95687.50;5070115;28;20453;-64
2022/12/06 02:01:51;;;;;;;0.50;0.50;;;;;;;9.25;56.50;95674.13;5069978;28;20438;-64
2022/12/06 02:04:20;;;;;;;0.00;0.00;;;;;;;9.23;56.57;95676.16;5056340;28;20451;-66
2022/12/06 02:06:48;;;;;;;0.20;0.20;;;;;;;8.70;57.84;95666.56;5062785;28;20542;-65
2022/12/06 02:09:16;;;;;;;0.00;0.00;;;;;;;9.07;57.38;95662.72;5063664;28;20205;-63
2022/12/06 02:11:43;;;;;;;0.30;0.30;;;;;;;9.07;56.58;95662.72;5064016;28;20443;-64
2022/12/06 02:14:18;;;;;;;0.00;0.00;;;;;;;9.28;56.89;95671.03;5062594;28;20196;-63
2022/12/06 02:17:00;;;;;;;0.20;0.20;;;;;;;8.98;57.38;95669.31;5069621;28;20687;-65
2022/12/06 02:19:33;;;;;;;0.40;0.40;;;;;;;9.31;56.53;95658.28;5055683;28;20454;-65
2022/12/06 02:22:33;;;;;;;0.23;0.23;;;;;;;8.85;57.90;95659.06;5056625;28;20861;-63
2022/12/06 02:25:27;;;;;;;0.20;0.20;;;;;;;9.18;57.10;95659.31;5055338;28;20434;-65
2022/12/06 02:28:12;;;;;;;0.20;0.20;;;;;;;9.21;56.53;95653.63;5069502;28;20192;-64
2022/12/06 02:30:54;;;;;;;1.03;0.30;;;;;;;9.54;55.87;95652.25;5061538;28;20879;-64
2022/12/06 02:33:27;;;;;;;0.17;0.17;;;;;;;9.41;55.97;95647.25;5052101;28;20450;-64
2022/12/06 02:36:07;;;;;;;0.22;0.22;;;;;;;9.71;55.31;95642.66;5069352;28;20480;-63
2022/12/06 02:38:37;;;;;;;0.87;0.87;;;;;;;9.59;55.73;95644.50;5055675;28;20219;-64
2022/12/06 02:41:18;;;;;;;0.03;0.03;;;;;;;9.77;55.38;95641.72;5069668;28;20458;-65
2022/12/06 02:43:53;;;;;;;0.53;0.53;;;;;;;9.68;55.07;95636.06;5069787;28;20507;-65
2022/12/06 02:46:23;;;;;;;0.00;0.00;;;;;;;9.42;55.42;95630.53;5069585;28;20444;-65
2022/12/06 02:48:52;;;;;;;0.70;0.70;;;;;;;9.61;55.35;95629.38;5051540;28;20232;-63
2022/12/06 02:51:19;;;;;;;0.97;0.87;;;;;;;9.86;54.55;95630.66;5049834;28;20431;-65
2022/12/06 02:53:50;;;;;;;0.20;0.20;;;;;;;9.81;54.26;95632.41;5062148;28;20490;-67
2022/12/06 02:56:18;;;;;;;0.13;0.13;;;;;;;9.71;53.76;95637.41;5069272;28;20273;-64
2022/12/06 02:58:46;;;;;;;0.30;0.30;;;;;;;9.40;54.89;95630.75;5069260;28;20453;-66
2022/12/06 03:01:21;;;;;;;0.00;0.00;;;;;;;9.51;55.18;95634.38;5069723;28;20474;-66
2022/12/06 03:03:51;;;;;;;0.00;0.00;;;;;;;9.38;55.30;95638.03;5069806;28;20444;-65
2022/12/06 03:06:24;;;;;;;0.17;0.17;;;;;;;8.73;56.27;95634.75;5065644;28;20442;-66
2022/12/06 03:09:03;;;;;;;0.05;0.05;;;;;;;8.93;56.49;95632.63;5049553;28;20450;-66
2022/12/06 03:11:52;;;;;;;0.00;0.00;;;;;;;9.02;56.40;95633.88;5067956;28;20625;-65
2022/12/06 03:14:25;;;;;;;0.00;0.00;;;;;;;9.18;55.66;95635.78;5069773;28;20449;-63
2022/12/06 03:17:10;;;;;;;0.40;0.40;;;;;;;9.15;55.28;95628.41;5068732;28;20615;-63
2022/12/06 03:19:39;;;;;;;0.10;0.10;;;;;;;9.14;55.10;95624.19;5065374;28;20294;-64
2022/12/06 03:22:12;;;;;;;0.77;0.20;;;;;;;9.29;54.65;95628.19;5061897;28;20439;-64
2022/12/06 03:24:42;;;;;;;0.15;0.08;;;;;;;9.43;54.77;95624.28;5049911;28;20461;-64
2022/12/06 03:27:14;;;;;;;0.00;0.00;;;;;;;8.76;56.43;95634.31;5069180;28;20203;-64
2022/12/06 03:29:52;;;;;;;0.10;0.10;;;;;;;8.88;56.67;95636.94;5068669;28;20765;-63
2022/12/06 03:32:23;;;;;;;0.03;0.03;;;;;;;8.57;57.28;95619.75;5049525;28;20841;-64
2022/12/06 03:34:54;;;;;;;0.13;0.10;;;;;;;8.64;56.94;95630.88;5049799;28;20547;-64
2022/12/06 03:37:24;;;;;;;0.00;0.00;;;;;;;8.71;57.04;95625.53;5062334;28;20243;-64
2022/12/06 03:40:00;;;;;;;0.20;0.20;;;;;;;8.96;56.58;95621.69;5062337;28;20204;-64
2022/12/06 03:42:28;;;;;;;0.87;0.77;;;;;;;8.95;56.45;95616.72;5056215;28;20196;-65
2022/12/06 03:44:55;;;;;;;0.20;0.20;;;;;;;9.26;56.21;95612.94;5068918;28;20481;-65
2022/12/06 03:47:30;;;;;;;0.10;0.10;;;;;;;9.32;55.50;95607.59;5055961;28;20226;-65
2022/12/06 03:50:02;;;;;;;0.27;0.27;;;;;;;9.27;56.23;95614.53;5072348;28;20215;-65
2022/12/06 03:52:29;;;;;;;0.77;0.77;;;;;;;9.27;55.66;95617.16;5058222;28;20447;-65
2022/12/06 03:54:56;;;;;;;0.00;0.00;;;;;;;9.38;55.95;95618.97;5072945;28;20889;-64
2022/12/06 03:57:23;;;;;;;2.20;0.40;;;;;;;9.33;55.79;95613.59;5072044;28;20570;-62
2022/12/06 03:59:50;;;;;;;0.57;0.57;;;;;;;9.34;56.15;95610.78;5058805;28;20511;-65
2022/12/06 04:02:17;;;;;;;0.10;0.10;;;;;;;9.50;55.78;95611.88;5059735;28;20496;-65
2022/12/06 04:04:44;;;;;;;0.00;0.00;;;;;;;9.46;55.81;95608.13;5056964;28;20476;-65
2022/12/06 04:07:11;;;;;;;0.33;0.33;;;;;;;9.26;56.27;95608.50;5072666;28;20474;-63
2022/12/06 04:10:01;;;;;;;0.53;0.53;;;;;;;9.10;56.28;95609.97;5072111;28;21049;-65
2022/12/06 04:15:17;;;;;;;0.63;0.63;;;;;;;9.58;55.44;95611.53;5052286;28;20442;-65
2022/12/06 04:23:17;;;;;;;1.53;1.03;;;;;;;9.10;57.49;95609.97;5069185;28;20965;-63
2022/12/06 04:25:44;;;;;;;0.57;0.57;;;;;;;9.12;57.40;95607.94;5072391;28;20466;-65
2022/12/06 04:39:22;;;;;;;0.10;0.10;;;;;;;8.94;57.58;95615.13;5062472;28;20197;-64
2022/12/06 04:44:34;;;;;;;0.63;0.63;;;;;;;9.40;57.11;95611.69;5062574;28;20442;-63
2022/12/06 04:47:01;;;;;;;3.03;1.60;;;;;;;9.33;57.16;95611.00;5055113;28;20478;-65
2022/12/06 04:49:28;;;;;;;4.80;1.30;;;;;;;9.69;55.63;95606.25;5060259;28;20600;-65
2022/12/06 04:51:55;;;;;;;0.33;0.33;;;;;;;9.72;55.81;95611.03;5060339;28;20470;-65
2022/12/06 04:54:23;;;;;;;0.70;0.70;;;;;;;9.62;55.44;95612.63;5065376;28;20501;-65
2022/12/06 04:56:50;;;;;;;0.10;0.10;;;;;;;9.70;55.60;95612.28;5061505;28;20493;-64
2022/12/06 04:59:18;;;;;;;0.10;0.10;;;;;;;9.61;56.60;95611.06;5056974;28;20439;-68
2022/12/06 05:01:45;;;;;;;0.67;0.67;;;;;;;9.63;56.16;95611.63;5056243;28;20199;-63
2022/12/06 05:04:13;;;;;;;2.30;2.10;;;;;;;9.29;56.73;95617.72;5068784;28;20450;-64
2022/12/06 05:06:40;;;;;;;0.10;0.08;;;;;;;9.42;56.13;95612.22;5061982;28;20209;-63
2022/12/06 05:09:07;;;;;;;0.17;0.17;;;;;;;9.27;56.62;95612.69;5051310;28;20203;-64
2022/12/06 05:11:33;;;;;;;0.10;0.10;;;;;;;9.41;56.30;95615.88;5058416;28;20953;-65
2022/12/06 05:14:00;;;;;;;0.00;0.00;;;;;;;9.38;55.82;95621.56;5057601;28;20228;-64
2022/12/06 05:16:28;;;;;;;0.00;0.00;;;;;;;9.44;55.23;95613.59;5051137;28;20474;-63
2022/12/06 05:18:55;;;;;;;0.65;0.43;;;;;;;9.34;56.11;95616.00;5063365;28;20273;-64
2022/12/06 05:21:23;;;;;;;0.00;0.00;;;;;;;9.45;57.61;95612.56;5052107;28;20625;-64
2022/12/06 05:23:56;;;;;;;0.30;0.30;;;;;;;9.50;57.97;95617.91;5049271;28;20501;-64
2022/12/06 05:26:25;;;;;;;0.27;0.27;;;;;;;9.52;58.67;95609.84;5049373;28;20443;-65
2022/12/06 05:28:53;;;;;;;0.00;0.00;;;;;;;9.62;56.92;95595.13;5049470;28;20797;-64
2022/12/06 05:31:21;;;;;;;0.23;0.23;;;;;;;9.42;56.73;95617.44;5049081;28;20470;-65
2022/12/06 05:33:49;;;;;;;0.20;0.20;;;;;;;9.23;57.69;95618.63;5049138;28;20558;-65
2022/12/06 05:36:19;;;;;;;0.17;0.17;;;;;;;9.10;58.39;95609.97;5048747;28;20442;-63
2022/12/06 05:38:47;;;;;;;0.50;0.33;;;;;;;9.58;56.64;95614.16;5048515;28;20483;-62
2022/12/06 05:41:18;;;;;;;0.13;0.13;;;;;;;9.50;56.15;95624.97;5048770;28;20497;-66
2022/12/06 05:43:45;;;;;;;1.50;1.13;;;;;;;9.70;55.45;95620.13;5049229;28;20196;-62
2022/12/06 05:46:13;;;;;;;0.10;0.10;;;;;;;9.33;55.81;95609.16;5048790;28;20478;-64
2022/12/06 05:48:39;;;;;;;0.20;0.20;;;;;;;9.20;56.17;95605.00;5049346;28;20506;-65
2022/12/06 05:51:06;;;;;;;0.10;0.10;;;;;;;9.17;56.93;95610.69;5050340;28;20442;-64
2022/12/06 05:53:34;;;;;;;0.17;0.17;;;;;;;9.15;56.60;95607.50;5060643;28;20530;-63
2022/12/06 05:56:07;;;;;;;3.10;2.53;;;;;;;9.25;57.07;95612.16;5056166;28;20802;-64
2022/12/06 05:58:35;;;;;;;0.40;0.40;;;;;;;8.98;56.46;95600.56;5060307;28;20482;-66
2022/12/06 06:01:04;;;;;;;0.40;0.40;;;;;;;8.86;57.04;95610.22;5064297;28;20887;-65
2022/12/06 06:03:30;;;;;;;0.00;0.00;;;;;;;8.90;57.15;95604.34;5059147;28;20478;-65
2022/12/06 06:05:59;;;;;;;0.00;0.00;;;;;;;8.98;56.94;95606.59;5069066;28;20453;-65
2022/12/06 06:11:13;;;;;;;0.10;0.10;;;;;;;9.43;55.41;95609.41;5055268;28;20443;-65
2022/12/06 06:13:40;;;;;;;0.67;0.67;;;;;;;9.59;55.12;95610.50;5062066;28;20228;-65
2022/12/06 06:16:07;;;;;;;0.50;0.50;;;;;;;9.46;55.70;95613.34;5064304;28;20449;-65
2022/12/06 06:18:34;;;;;;;2.10;2.00;;;;;;;9.76;54.44;95603.50;5063532;28;20561;-62
2022/12/06 06:21:02;;;;;;;1.40;1.30;;;;;;;9.68;54.67;95596.00;5062751;28;20445;-63
2022/12/06 06:23:30;;;;;;;1.00;0.67;;;;;;;9.92;54.88;95597.53;5055849;28;21084;-66
2022/12/06 06:25:56;;;;;;;0.27;0.27;;;;;;;9.98;54.54;95596.59;5069766;28;20969;-64
2022/12/06 06:28:23;;;;;;;0.00;0.00;;;;;;;9.94;54.42;95605.94;5052217;28;20460;-65
2022/12/06 06:30:50;;;;;;;0.23;0.23;;;;;;;9.96;54.44;95606.50;5059312;28;20442;-64
2022/12/06 06:33:17;;;;;;;1.03;0.93;;;;;;;10.05;54.19;95628.69;5052995;28;20477;-62
2022/12/06 06:35:44;;;;;;;0.10;0.10;;;;;;;10.25;53.66;95623.84;5049854;28;20475;-65
2022/12/06 06:38:11;;;;;;;0.13;0.13;;;;;;;9.75;55.09;95607.13;5049750;28;20912;-65
2022/12/06 06:40:38;;;;;;;0.37;0.37;;;;;;;9.51;55.51;95610.84;5063175;28;21112;-65
2022/12/06 06:43:17;;;;;;;0.30;0.30;;;;;;;9.70;54.65;95604.44;5055995;28;20438;-63
2022/12/06 06:45:52;;;;;;;0.40;0.40;;;;;;;9.80;55.41;95607.22;5069715;28;20540;-62
2022/12/06 06:48:20;;;;;;;0.50;0.50;;;;;;;9.95;55.06;95607.53;5060782;28;20555;-66
2022/12/06 06:50:48;;;;;;;0.10;0.10;;;;;;;9.94;55.31;95600.72;5062323;28;20548;-66
2022/12/06 06:53:23;;;;;;;2.00;0.77;;;;;;;10.04;54.73;95606.13;5058078;28;20924;-63
2022/12/06 06:55:52;;;;;;;1.27;1.17;;;;;;;10.13;54.72;95599.50;5051143;28;20451;-65
2022/12/06 06:58:20;;;;;;;0.30;0.30;;;;;;;9.83;55.43;95594.50;5051805;28;21020;-64
2022/12/06 07:00:52;;;;;;;0.47;0.47;;;;;;;10.00;55.17;95599.75;5055701;28;20538;-65
2022/12/06 07:03:19;;;;;;;2.37;1.03;;;;;;;9.58;55.55;95590.59;5069368;28;21318;-65
2022/12/06 07:05:57;;;;;;;0.60;0.60;;;;;;;9.47;55.72;95588.81;5069305;28;20540;-67
2022/12/06 07:08:26;;;;;;;0.30;0.30;;;;;;;9.44;56.08;95599.72;5056630;28;20453;-65
2022/12/06 07:10:54;;;;;;;0.80;0.80;;;;;;;9.15;57.23;95601.47;5056136;28;20482;-64
2022/12/06 07:13:24;;;;;;;0.20;0.20;;;;;;;9.30;56.85;95603.59;5069146;28;20450;-62
2022/12/06 07:15:51;;;;;;;0.20;0.20;;;;;;;9.37;57.22;95596.44;5057920;28;20457;-64
2022/12/06 07:18:18;;;;;;;0.33;0.33;;;;;;;9.23;57.39;95599.28;5063849;28;20524;-64
2022/12/06 07:20:46;;;;;;;0.30;0.30;;;;;;;9.31;57.25;95605.19;5060817;28;20956;-66
2022/12/06 07:23:14;;;;;;;0.20;0.20;;;;;;;9.29;56.93;95594.97;5056553;28;20957;-64
2022/12/06 07:25:40;;;;;;;0.30;0.30;;;;;;;9.45;56.68;95601.31;5062680;28;21153;-65
2022/12/06 07:28:07;;;;;;;2.70;0.93;;;;;;;9.77;56.08;95599.84;5059302;28;20450;-64
2022/12/06 07:30:34;;;;;;;1.80;1.27;;;;;;;9.62;56.87;95596.94;5073199;28;20470;-65
2022/12/06 07:33:01;;;;;;;3.10;1.60;;;;;;;9.42;56.88;95604.38;5059901;28;20446;-66
2022/12/06 07:35:28;;;;;;;0.10;0.10;;;;;;;9.67;56.43;95599.69;5052972;28;20443;-61
2022/12/06 07:38:15;;;;;;;3.50;0.57;;;;;;;9.66;56.10;95592.84;5067241;28;20473;-63
2022/12/06 07:40:42;;;;;;;1.87;1.77;;;;;;;9.46;56.66;95589.81;5072881;28;20434;-63
2022/12/06 07:46:14;;;;;;;0.87;0.87;;;;;;;9.87;56.37;95594.81;5062728;28;20470;-63
2022/12/06 07:48:41;;;;;;;0.27;0.27;;;;;;;9.60;55.91;95586.72;5066354;28;20477;-62
2022/12/06 07:51:08;;;;;;;0.83;0.83;;;;;;;9.84;56.19;95590.84;5056336;28;20442;-62
2022/12/06 07:53:34;;;;;;;0.10;0.10;;;;;;;10.02;55.94;95579.38;5053053;28;20430;-63
2022/12/06 07:56:06;;;;;;;0.30;0.30;;;;;;;9.78;56.59;95583.91;5069360;28;20454;-62
2022/12/06 07:58:33;;;;;;;0.37;0.37;;;;;;;10.09;56.40;95587.94;5072792;28;20821;-63
2022/12/06 08:01:02;;;;;;;0.10;0.10;;;;;;;10.26;55.58;95588.75;5072774;28;20450;-62
2022/12/06 08:03:30;;;;;;;5.03;0.50;;;;;;;10.21;55.56;95593.91;5072616;28;20784;-62
2022/12/06 08:05:56;;;;;;;0.97;0.43;;;;;;;10.09;55.13;95591.31;5071980;28;20988;-62
2022/12/06 08:08:24;;;;;;;1.50;0.40;;;;;;;10.02;55.06;95592.47;5059467;28;20473;-62
2022/12/06 08:10:58;;;;;;;1.20;0.63;;;;;;;10.59;54.07;95588.78;5058882;28;20493;-62
2022/12/06 08:13:26;;;;;;;0.10;0.10;;;;;;;10.54;54.27;95590.53;5058711;28;21223;-62
2022/12/06 08:15:54;;;;;;;0.27;0.27;;;;;;;10.46;54.28;95594.31;5072460;28;20808;-62
2022/12/06 08:18:21;;;;;;;0.67;0.67;;;;;;;10.33;54.01;95594.63;5057887;28;20487;-64
2022/12/06 08:20:49;;;;;;;1.57;1.47;;;;;;;10.36;53.82;95588.94;5061578;28;20504;-62
2022/12/06 08:23:17;;;;;;;0.00;0.00;;;;;;;10.29;53.60;95593.53;5066270;28;21049;-63
2022/12/06 08:25:44;;;;;;;0.67;0.53;;;;;;;10.49;53.72;95582.59;5052244;28;20474;-61
2022/12/06 08:28:10;;;;;;;0.00;0.00;;;;;;;10.33;53.85;95584.13;5067801;28;21149;-63
2022/12/06 08:30:40;;;;;;;0.13;0.13;;;;;;;10.15;53.72;95581.75;5064262;28;20816;-62
2022/12/06 08:33:07;;;;;;;0.63;0.50;;;;;;;9.85;54.65;95583.78;5051366;28;20443;-62
2022/12/06 08:35:37;;;;;;;0.20;0.20;;;;;;;10.22;54.34;95577.13;5058313;28;20964;-63
2022/12/06 08:38:04;;;;;;;0.00;0.00;;;;;;;10.26;53.91;95575.66;5059027;28;20985;-61
2022/12/06 08:40:31;;;;;;;0.00;0.00;;;;;;;9.87;53.81;95573.88;5065816;28;20478;-61
2022/12/06 08:42:58;;;;;;;0.67;0.60;;;;;;;10.20;53.85;95568.72;5063480;28;20477;-62
2022/12/06 08:45:25;;;;;;;0.87;0.33;;;;;;;9.69;54.31;95574.06;5068676;28;20875;-62
2022/12/06 08:47:52;;;;;;;4.73;0.93;;;;;;;9.92;54.03;95566.91;5060637;28;20474;-62
2022/12/06 08:50:19;;;;;;;0.37;0.13;;;;;;;10.30;53.33;95574.16;5069515;28;20433;-62
2022/12/06 08:52:47;;;;;;;0.40;0.40;;;;;;;10.96;52.62;95561.03;5055784;28;20988;-64
2022/12/06 08:55:13;;;;;;;1.30;1.20;;;;;;;10.72;53.01;95570.09;5060903;28;21016;-62
2022/12/06 08:57:40;;;;;;;0.00;0.00;;;;;;;10.09;53.47;95567.00;5068136;28;20465;-64
2022/12/06 09:00:08;;;;;;;0.43;0.43;;;;;;;10.40;53.75;95566.44;5071417;28;20438;-62
2022/12/06 09:02:38;;;;;;;0.30;0.30;;;;;;;10.72;53.59;95561.44;5070913;28;20438;-63
2022/12/06 09:05:05;;;;;;;1.33;1.17;;;;;;;11.12;51.93;95552.34;5071160;28;20957;-62
2022/12/06 09:07:32;;;;;;;0.57;0.57;;;;;;;11.15;52.40;95557.09;5071548;28;20464;-66
2022/12/06 09:09:59;;;;;;;1.17;1.10;;;;;;;10.90;52.75;95554.13;5065135;28;20482;-62
2022/12/06 09:12:26;;;;;;;1.93;1.47;;;;;;;10.84;52.99;95549.84;5063660;28;20438;-62
2022/12/06 09:14:53;;;;;;;0.57;0.57;;;;;;;10.93;53.01;95537.91;5066813;28;20443;-63
2022/12/06 09:17:20;;;;;;;1.13;0.50;;;;;;;11.02;51.82;95536.44;5061764;28;20466;-63
2022/12/06 09:19:47;;;;;;;0.57;0.50;;;;;;;11.17;51.61;95518.28;5071158;28;20474;-61
2022/12/06 09:22:14;;;;;;;0.30;0.30;;;;;;;11.60;50.98;95517.50;5071151;28;21172;-62
2022/12/06 09:24:40;;;;;;;0.47;0.47;;;;;;;11.61;50.74;95513.03;5056846;28;20873;-62
2022/12/06 09:27:07;;;;;;;0.00;0.00;;;;;;;11.67;50.79;95517.31;5071103;28;20474;-62
2022/12/06 09:29:36;;;;;;;0.13;0.13;;;;;;;11.39;51.14;95501.75;5071236;28;20446;-63
2022/12/06 09:32:06;;;;;;;0.00;0.00;;;;;;;11.26;51.61;95500.28;5050938;28;20442;-63
2022/12/06 09:34:33;;;;;;;1.23;1.13;;;;;;;11.34;51.38;95496.44;5051177;28;20489;-62
2022/12/06 09:37:10;;;;;;;0.10;0.10;;;;;;;11.40;50.62;95482.34;5068990;28;20438;-65
2022/12/06 09:39:42;;;;;;;0.20;0.20;;;;;;;11.23;51.07;95477.97;5070914;28;20504;-63
2022/12/06 09:42:15;;;;;;;0.30;0.30;;;;;;;11.70;50.85;95469.56;5056732;28;20929;-63
2022/12/06 09:45:22;;;;;;;0.03;0.03;;;;;;;11.64;50.76;95458.19;5059424;28;20969;-64
2022/12/06 09:47:58;;;;;;;0.63;0.63;;;;;;;11.34;51.07;95464.97;5059881;28;20536;-62
2022/12/06 09:50:43;;;;;;;0.43;0.43;;;;;;;11.79;50.46;95462.81;5067697;28;20855;-62
2022/12/06 09:53:25;;;;;;;0.67;0.50;;;;;;;11.31;50.66;95460.22;5057987;28;20445;-64
2022/12/06 09:56:21;;;;;;;6.03;1.70;;;;;;;11.42;50.37;95454.03;5070339;28;20960;-61
2022/12/06 09:59:13;;;;;;;0.00;0.00;;;;;;;11.45;50.36;95466.66;5049196;28;20472;-62
2022/12/06 10:01:45;;;;;;;0.03;0.03;;;;;;;11.42;50.68;95461.91;5050785;28;20443;-63
2022/12/06 10:04:38;;;;;;;0.00;0.00;;;;;;;11.79;49.71;95454.94;5064602;28;20705;-61
2022/12/06 10:07:36;;;;;;;0.10;0.10;;;;;;;11.55;50.95;95457.06;5057276;28;20511;-62
2022/12/06 10:10:36;;;;;;;0.93;0.83;;;;;;;11.91;50.81;95445.09;5056319;28;20446;-61
2022/12/06 10:13:36;;;;;;;0.13;0.13;;;;;;;11.51;50.57;95448.13;5066755;28;20435;-62
2022/12/06 10:16:44;;;;;;;3.13;1.17;;;;;;;11.50;51.11;95424.72;5049684;28;20570;-62
2022/12/06 10:19:39;;;;;;;0.20;0.20;;;;;;;11.64;51.07;95431.94;5050004;28;20482;-65
2022/12/06 10:22:19;;;;;;;1.70;0.73;;;;;;;11.88;50.35;95419.31;5058191;28;20446;-62
2022/12/06 10:24:55;;;;;;;0.83;0.83;;;;;;;11.82;49.84;95415.09;5055649;28;20953;-63
2022/12/06 10:27:34;;;;;;;0.40;0.40;;;;;;;11.50;50.56;95411.59;5060825;28;20454;-63
2022/12/06 10:30:09;;;;;;;0.47;0.23;;;;;;;11.59;50.93;95410.09;5066161;28;20454;-61
2022/12/06 10:33:04;;;;;;;0.93;0.93;;;;;;;11.65;50.56;95409.94;5059836;28;20437;-63
2022/12/06 10:35:54;;;;;;;0.10;0.10;;;;;;;11.53;50.72;95405.88;5069512;28;20959;-63
2022/12/06 10:38:44;;;;;;;0.63;0.63;;;;;;;11.56;50.71;95400.13;5069439;28;20477;-62
2022/12/06 10:41:29;;;;;;;0.00;0.00;;;;;;;11.70;50.36;95407.38;5069818;28;20512;-64
2022/12/06 10:44:40;;;;;;;0.80;0.40;;;;;;;12.00;49.83;95406.81;5064464;28;20442;-63
2022/12/06 10:47:13;;;;;;;0.27;0.27;;;;;;;12.16;49.32;95406.69;4984768;28;20860;-61
2022/12/06 10:50:04;;;;;;;0.30;0.30;;;;;;;12.03;49.09;95407.13;5043530;28;20876;-61
2022/12/06 10:52:44;;;;;;;0.20;0.20;;;;;;;12.17;49.35;95400.38;5055087;28;20457;-62
2022/12/06 10:55:35;;;;;;;0.93;0.70;;;;;;;12.03;49.85;95399.22;5069431;28;20440;-62
2022/12/06 10:58:33;;;;;;;0.07;0.07;;;;;;;12.04;50.01;95403.44;5069278;28;20523;-63
2022/12/06 11:01:10;;;;;;;0.17;0.17;;;;;;;11.96;49.63;95393.41;5067001;28;20834;-62
2022/12/06 11:03:42;;;;;;;0.00;0.00;;;;;;;12.41;49.03;95384.25;5049240;28;20430;-62
2022/12/06 11:06:31;;;;;;;0.33;0.33;;;;;;;12.92;48.26;95373.69;5049001;28;20529;-62
2022/12/06 11:09:19;;;;;;;0.73;0.63;;;;;;;12.82;47.91;95367.59;5061036;28;20515;-62
2022/12/06 11:11:49;;;;;;;0.53;0.53;;;;;;;12.98;48.15;95361.34;5055766;28;20441;-60
2022/12/06 11:14:28;;;;;;;0.30;0.30;;;;;;;12.77;47.31;95360.47;5056266;28;20443;-62
2022/12/06 11:16:58;;;;;;;0.10;0.10;;;;;;;12.96;47.81;95352.91;5056264;28;20552;-63
2022/12/06 11:19:32;;;;;;;3.77;1.77;;;;;;;13.06;47.53;95353.75;5055585;28;20510;-62
2022/12/06 11:22:23;;;;;;;0.70;0.70;;;;;;;12.78;47.70;95356.03;5049234;28;20474;-61
2022/12/06 11:24:55;;;;;;;0.10;0.10;;;;;;;12.91;47.70;95351.09;5062953;28;20472;-62
2022/12/06 11:28:05;;;;;;;0.70;0.40;;;;;;;13.10;47.52;95341.69;5049059;28;20450;-62
2022/12/06 11:30:32;;;;;;;0.00;0.00;;;;;;;12.89;47.63;95337.41;5048292;28;20519;-63
2022/12/06 11:33:00;;;;;;;1.20;0.63;;;;;;;12.90;47.37;95336.34;5056352;28;20431;-62
2022/12/06 11:35:28;;;;;;;0.40;0.40;;;;;;;13.21;47.36;95332.75;5048647;28;20534;-62
2022/12/06 11:38:03;;;;;;;0.60;0.60;;;;;;;13.26;47.13;95333.81;5060531;28;20529;-61
2022/12/06 11:40:35;;;;;;;0.30;0.30;;;;;;;13.11;46.70;95338.03;5063586;28;21231;-63
2022/12/06 11:43:07;;;;;;;0.63;0.57;;;;;;;13.28;46.07;95329.09;5048968;28;20446;-63
2022/12/06 11:45:38;;;;;;;3.20;1.40;;;;;;;13.30;46.03;95327.00;5053214;28;20446;-63
2022/12/06 11:48:21;;;;;;;0.80;0.70;;;;;;;13.26;46.64;95333.81;5068956;28;20465;-62
2022/12/06 11:50:50;;;;;;;0.37;0.37;;;;;;;13.40;46.92;95332.25;5066393;28;20449;-62
2022/12/06 11:53:38;;;;;;;2.27;1.80;;;;;;;13.29;46.75;95335.94;5057351;28;21050;-63
2022/12/06 11:56:19;;;;;;;0.17;0.17;;;;;;;13.35;46.57;95324.38;5054201;28;20520;-62
2022/12/06 11:58:59;;;;;;;0.40;0.40;;;;;;;13.05;47.53;95320.63;5056833;28;20484;-62
2022/12/06 12:01:37;;;;;;;7.43;0.60;;;;;;;13.03;47.74;95321.94;5067988;28;20452;-63
2022/12/06 12:04:25;;;;;;;0.30;0.30;;;;;;;12.68;47.02;95313.94;5068823;28;20496;-63
2022/12/06 12:06:58;;;;;;;0.57;0.57;;;;;;;12.54;47.74;95313.59;5048518;28;20447;-62
2022/12/06 12:09:30;;;;;;;0.43;0.17;;;;;;;12.77;47.33;95307.88;5066722;28;20446;-62
2022/12/06 12:12:05;;;;;;;0.10;0.10;;;;;;;12.29;48.44;95321.38;5072398;28;20438;-61
2022/12/06 12:14:39;;;;;;;0.10;0.10;;;;;;;12.18;48.39;95314.47;5072067;28;20458;-62
2022/12/06 12:17:19;;;;;;;0.00;0.00;;;;;;;12.36;48.11;95306.16;5072613;28;20441;-61
2022/12/06 12:19:56;;;;;;;1.23;1.13;;;;;;;13.07;47.83;95308.00;5068936;28;20481;-62
2022/12/06 12:22:35;;;;;;;0.47;0.47;;;;;;;14.02;46.26;95298.53;5052219;28;20450;-63
2022/12/06 12:25:27;;;;;;;0.17;0.17;;;;;;;14.91;43.84;95286.09;5065863;28;20446;-62
2022/12/06 12:27:58;;;;;;;1.30;1.20;;;;;;;14.94;43.03;95285.53;5052231;28;20497;-63
2022/12/06 12:30:54;;;;;;;0.53;0.53;;;;;;;16.44;41.55;95272.13;5057926;28;20917;-63
2022/12/06 12:33:23;;;;;;;0.70;0.70;;;;;;;17.82;39.01;95255.66;5054396;28;20817;-62